Pagrindinis puslapis
METAR-TAF:

METAR-TAF

Oro uostai :

Juliaca, Peru

platuma: 15-29S, ilguma: 070-09W, Aukštis: 3826 m

Dabartinis oras

Ataskaita buvo paskelbta 52 minutes, ne 14:00 UTC
Vėjas 2 kt iš Rytų/Šiaurės Rytų
Temperatūra 12°C
Drėgmė 26%
Slėgis 1037 hPa
Matomumas 10 km arba daugiau
nėra debesų žemiau 1500 m ir nėra kamuolinių lietaus debesų

METAR: SPJL 201400Z 06002KT CAVOK 12/M07 Q1037 RMK PP000

Laikas: 09:52 (14:52 UTC)

Prognozė

Ataskaita buvo paskelbta 3 valandos ir 37 minutes, ne 11:15 UTC
Prognozė galioja nuo 20 metu 12 UTC su 21 metu 12 UTC
Vėjas 4 kt iš Šiaurės Rytų
Matomumas 10 km arba daugiau
nėra debesų žemiau 1500 m ir nėra kamuolinių lietaus debesų
Nuo 20 metu 2000 UTC
Vėjas 10 kt iš Rytų/Pietryčių
Matomumas 10 km arba daugiau
Išsisklaidę debesys ne aukštis 2000 ft
Nuo 20 metu 2300 UTC
Vėjas 5 kt iš Šiaurės Rytų
Matomumas 10 km arba daugiau
Išsisklaidę debesys ne aukštis 2000 ft

TAF: SPJL 201115Z 2012/2112 05004KT CAVOK TX18/2018Z TN02/2110Z FM202000 11010KT 9999 SCT020 FM202300 04005KT 9999 SCT020

Orai ataskaitas ir orų prognozės (METAR, TAF).

turimą stotys yra geltonos ir raudonos taškus žemėlapyje.

Perkelti pele per norėdami pamatyti stoties vardą.

Tada spustelėkite, norėdami matyti oro stebėjimo ir prognozės.

Norėdami pakeisti žemėlapį: spustelėkite ant žalios mygtukų su juodo kryžiaus žemyn,; žalią mygtuką su brūkšneliu, jei norite nutolinti; arba žalių rodyklių gretimoms žemėlapius.


METAR-TAF: